Rockingham, North Carolina
Current Conditions -  °F | °C
As of 12:35 AM on Sunday 26 Oct 2014 (Local Time) from KRCZ Reporting Station
Clear Clear  
Wind Chill: 54°   Ceiling: Unl
Heat Index: 54°   Visibility: 10mi
Dew Point: 43°   Wind: 3mph
Humidity: 68%   Direction: 220°SW
Pressure: 29.9"   Gusts: NA
Location:  34.94°N, 79.77°W
Report Text: KRCZ 260435Z AUTO 22003KT 10SM CLR 12/06 A2990 RMK AO2 T01200063
Loading
Personal Weather Stations






























Interactive Weather Map
Tropical Storm Tracking
New forecast layout! Learn more

10-Day Weather Forecast

Advertisements
Track Severe Weather on mobile